Time;durP1;ratioP1;P1;durP2;ratioP2;P2;SDS_P1;SDS_P2;PMS_P1;PMS_P2;Temp;Humidity;BMP_temperature;BMP_pressure;BME280_temperature;BME280_humidity;BME280_pressure;Samples;Min_cycle;Max_cycle;Signal;HPM_P1;HPM_P2
2022/06/27 00:01:25;;;;;;;0.00;0.00;;;17.40;99.90;;;;;;5116065;28;20055;-79
2022/06/27 00:03:50;;;;;;;0.00;0.00;;;17.40;99.90;;;;;;5116408;28;20086;-79
2022/06/27 00:06:19;;;;;;;0.00;0.00;;;17.40;99.90;;;;;;5116386;28;20097;-79
2022/06/27 00:08:48;;;;;;;0.00;0.00;;;17.30;99.90;;;;;;5098933;28;20090;-79
2022/06/27 00:11:15;;;;;;;0.00;0.00;;;17.30;99.90;;;;;;5098832;28;20074;-79
2022/06/27 00:13:40;;;;;;;0.00;0.00;;;17.30;99.90;;;;;;5116187;28;20434;-79
2022/06/27 00:16:06;;;;;;;0.00;0.00;;;17.20;99.90;;;;;;5115945;28;20082;-79
2022/06/27 00:18:32;;;;;;;0.00;0.00;;;17.30;99.90;;;;;;5099294;28;20051;-79
2022/06/27 00:20:57;;;;;;;0.00;0.00;;;17.30;99.90;;;;;;5116048;28;20045;-80
2022/06/27 00:23:23;;;;;;;0.00;0.00;;;17.20;99.90;;;;;;5116000;28;20474;-79
2022/06/27 00:25:49;;;;;;;0.00;0.00;;;17.30;99.90;;;;;;5116065;28;20100;-79
2022/06/27 00:28:15;;;;;;;0.00;0.00;;;17.30;99.90;;;;;;5099056;28;20050;-79
2022/06/27 00:30:41;;;;;;;0.00;0.00;;;17.20;99.90;;;;;;5116460;28;20055;-79
2022/06/27 00:33:07;;;;;;;0.10;0.10;;;17.20;99.90;;;;;;5116013;28;20054;-79
2022/06/27 00:35:33;;;;;;;0.00;0.00;;;17.20;99.90;;;;;;5116016;28;20396;-79
2022/06/27 00:37:58;;;;;;;0.10;0.10;;;17.20;99.90;;;;;;5116014;28;20058;-79
2022/06/27 00:40:24;;;;;;;0.00;0.00;;;17.30;99.90;;;;;;5118663;27;20402;-79
2022/06/27 00:42:50;;;;;;;0.00;0.00;;;17.20;99.90;;;;;;5118061;27;20042;-79
2022/06/27 00:45:15;;;;;;;0.00;0.00;;;17.20;99.90;;;;;;5117479;27;20070;-79
2022/06/27 00:47:41;;;;;;;0.00;0.00;;;17.20;99.90;;;;;;5118087;27;20043;-79
2022/06/27 00:50:07;;;;;;;0.00;0.00;;;17.20;99.90;;;;;;5118160;27;20039;-79
2022/06/27 00:52:34;;;;;;;0.05;0.00;;;17.20;99.90;;;;;;5100865;27;20047;-80
2022/06/27 00:55:00;;;;;;;0.00;0.00;;;17.30;99.90;;;;;;5117636;27;20482;-79
2022/06/27 00:57:28;;;;;;;0.00;0.00;;;17.20;99.90;;;;;;5117711;27;20047;-79
2022/06/27 00:59:54;;;;;;;0.00;0.00;;;17.20;99.90;;;;;;5101221;27;20376;-79
2022/06/27 01:02:19;;;;;;;0.00;0.00;;;17.20;99.90;;;;;;5102446;27;20090;-79
2022/06/27 01:04:45;;;;;;;0.00;0.00;;;17.20;99.90;;;;;;5119686;27;20074;-79
2022/06/27 01:07:11;;;;;;;0.00;0.00;;;17.20;99.90;;;;;;5119303;27;20047;-79
2022/06/27 01:09:38;;;;;;;0.00;0.00;;;17.10;99.90;;;;;;5102167;27;20505;-79
2022/06/27 01:12:04;;;;;;;0.03;0.03;;;17.10;99.90;;;;;;5118914;27;20538;-79
2022/06/27 01:14:30;;;;;;;0.00;0.00;;;17.00;99.90;;;;;;5118967;27;20106;-79
2022/06/27 01:16:57;;;;;;;0.00;0.00;;;17.00;99.90;;;;;;5119509;27;20043;-80
2022/06/27 01:19:23;;;;;;;0.00;0.00;;;17.10;99.90;;;;;;5118809;27;20092;-80
2022/06/27 01:21:51;;;;;;;0.00;0.00;;;17.00;99.90;;;;;;5101263;27;20491;-79
2022/06/27 01:24:19;;;;;;;0.00;0.00;;;17.10;99.90;;;;;;5118966;27;20044;-79
2022/06/27 01:26:45;;;;;;;0.00;0.00;;;17.10;99.90;;;;;;5118638;27;20095;-79
2022/06/27 01:29:11;;;;;;;0.00;0.00;;;17.10;99.90;;;;;;5101771;27;20043;-79
2022/06/27 01:31:37;;;;;;;0.00;0.00;;;17.10;99.90;;;;;;5101652;27;20091;-79
2022/06/27 01:34:04;;;;;;;0.00;0.00;;;17.10;99.90;;;;;;5118798;27;20089;-79
2022/06/27 01:36:42;;;;;;;0.00;0.00;;;17.10;99.90;;;;;;5118691;27;20055;-80
2022/06/27 01:39:27;;;;;;;0.08;0.08;;;17.20;99.90;;;;;;5118631;27;20386;-79
2022/06/27 01:41:57;;;;;;;;;;;17.10;99.90;;;;;;5101127;27;20138;-80
2022/06/27 01:44:25;;;;;;;0.00;0.00;;;17.10;99.90;;;;;;5118333;27;20277;-79
2022/06/27 01:47:08;;;;;;;0.10;0.10;;;17.00;99.90;;;;;;5101170;27;20058;-79
2022/06/27 01:49:35;;;;;;;0.52;0.20;;;17.00;99.90;;;;;;5118319;27;20149;-79
2022/06/27 01:52:03;;;;;;;0.10;0.08;;;17.00;99.90;;;;;;5117461;27;20043;-79
2022/06/27 01:54:29;;;;;;;0.03;0.03;;;17.10;99.90;;;;;;5118302;27;20438;-79
2022/06/27 01:56:55;;;;;;;0.00;0.00;;;17.10;99.90;;;;;;5118385;27;20424;-80
2022/06/27 01:59:25;;;;;;;0.00;0.00;;;17.10;99.90;;;;;;5117884;27;20143;-80
2022/06/27 02:01:50;;;;;;;0.00;0.00;;;17.10;99.90;;;;;;5117586;27;20039;-80
2022/06/27 02:04:17;;;;;;;0.00;0.00;;;17.10;99.90;;;;;;5117879;27;20039;-80
2022/06/27 02:06:44;;;;;;;0.00;0.00;;;17.10;99.90;;;;;;5100259;27;20055;-80
2022/06/27 02:09:12;;;;;;;0.00;0.00;;;17.10;99.90;;;;;;5117706;27;20049;-80
2022/06/27 02:11:40;;;;;;;0.00;0.00;;;17.10;99.90;;;;;;5117562;27;20055;-80
2022/06/27 02:14:06;;;;;;;0.00;0.00;;;17.10;99.90;;;;;;5100951;27;20086;-80
2022/06/27 02:16:32;;;;;;;0.00;0.00;;;17.10;99.90;;;;;;5117758;27;20045;-81
2022/06/27 02:18:57;;;;;;;0.00;0.00;;;17.00;99.90;;;;;;5117655;27;20478;-81
2022/06/27 02:21:25;;;;;;;0.00;0.00;;;17.00;99.90;;;;;;5117258;27;20039;-80
2022/06/27 02:23:52;;;;;;;0.00;0.00;;;17.00;99.90;;;;;;5100394;27;20055;-80
2022/06/27 02:26:24;;;;;;;0.00;0.00;;;17.00;99.90;;;;;;5117620;27;20050;-80
2022/06/27 02:28:51;;;;;;;2.22;0.63;;;17.00;99.90;;;;;;5117831;27;20047;-80
2022/06/27 02:31:16;;;;;;;0.00;0.00;;;17.00;99.90;;;;;;5117455;27;20047;-80
2022/06/27 02:33:44;;;;;;;0.00;0.00;;;17.00;99.90;;;;;;5117374;27;20061;-80
2022/06/27 02:36:15;;;;;;;0.00;0.00;;;17.00;99.90;;;;;;5117210;27;20047;-81
2022/06/27 02:38:42;;;;;;;0.00;0.00;;;17.00;99.90;;;;;;5117187;27;20390;-81
2022/06/27 02:41:12;;;;;;;0.00;0.00;;;16.90;99.90;;;;;;5117056;27;20096;-81
2022/06/27 02:43:39;;;;;;;0.10;0.10;;;16.90;99.90;;;;;;5116961;27;20083;-81
2022/06/27 02:46:05;;;;;;;0.00;0.00;;;16.90;99.90;;;;;;5117614;27;20043;-82
2022/06/27 02:48:32;;;;;;;1.58;0.65;;;16.80;99.90;;;;;;5117177;27;20039;-82
2022/06/27 02:51:04;;;;;;;0.10;0.10;;;16.80;99.90;;;;;;5100269;27;20043;-81
2022/06/27 02:53:35;;;;;;;0.03;0.00;;;16.80;99.90;;;;;;5117480;27;20062;-82
2022/06/27 02:56:03;;;;;;;0.00;0.00;;;16.90;99.90;;;;;;5099660;27;20047;-81
2022/06/27 02:59:01;;;;;;;0.00;0.00;;;16.90;99.90;;;;;;5099755;27;20043;-81
2022/06/27 03:01:28;;;;;;;0.00;0.00;;;16.90;99.90;;;;;;5018752;28;20049;-82
2022/06/27 03:03:55;;;;;;;0.05;0.00;;;16.90;99.90;;;;;;5018837;28;20045;-82
2022/06/27 03:06:22;;;;;;;6.93;0.38;;;16.90;99.90;;;;;;5035254;28;20059;-82
2022/06/27 03:08:48;;;;;;;0.00;0.00;;;16.90;99.90;;;;;;5035310;28;20048;-82
2022/06/27 03:11:16;;;;;;;0.00;0.00;;;16.80;99.90;;;;;;5019310;28;20057;-82
2022/06/27 03:13:43;;;;;;;0.00;0.00;;;16.80;99.90;;;;;;5035072;28;20400;-82
2022/06/27 03:16:09;;;;;;;0.00;0.00;;;16.80;99.90;;;;;;5035173;28;20048;-82
2022/06/27 03:18:35;;;;;;;0.00;0.00;;;16.80;99.90;;;;;;5017955;28;20485;-82
2022/06/27 03:21:01;;;;;;;0.00;0.00;;;16.70;99.90;;;;;;5034954;28;20218;-82
2022/06/27 03:23:27;;;;;;;0.00;0.00;;;16.70;99.90;;;;;;5035139;28;20079;-82
2022/06/27 03:25:54;;;;;;;0.22;0.00;;;16.60;99.90;;;;;;5035533;28;20053;-81
2022/06/27 03:28:19;;;;;;;0.00;0.00;;;16.60;99.90;;;;;;5035658;28;20057;-82
2022/06/27 03:30:45;;;;;;;0.00;0.00;;;16.60;99.90;;;;;;5034958;28;20148;-81
2022/06/27 03:33:11;;;;;;;0.00;0.00;;;16.60;99.90;;;;;;5034955;28;20045;-81
2022/06/27 03:35:37;;;;;;;0.00;0.00;;;16.50;99.90;;;;;;5018112;28;20057;-81
2022/06/27 03:38:03;;;;;;;0.00;0.00;;;16.50;99.90;;;;;;5083450;28;20407;-81
2022/06/27 03:40:28;;;;;;;0.00;0.00;;;16.40;99.90;;;;;;5116410;28;20071;-80
2022/06/27 03:42:54;;;;;;;0.00;0.00;;;16.40;99.90;;;;;;5099282;28;20538;-80
2022/06/27 03:45:20;;;;;;;0.00;0.00;;;16.40;99.90;;;;;;5116333;28;20035;-81
2022/06/27 03:47:50;;;;;;;0.00;0.00;;;16.40;99.90;;;;;;5116682;28;20046;-81
2022/06/27 03:50:17;;;;;;;0.00;0.00;;;16.40;99.90;;;;;;5099066;28;20059;-80
2022/06/27 03:52:43;;;;;;;0.00;0.00;;;16.40;99.90;;;;;;5116116;28;20047;-81
2022/06/27 03:55:10;;;;;;;0.00;0.00;;;16.40;99.90;;;;;;5116380;28;20062;-82
2022/06/27 03:57:37;;;;;;;0.00;0.00;;;16.40;99.90;;;;;;5099293;28;20058;-82
2022/06/27 04:00:05;;;;;;;0.00;0.00;;;16.40;99.90;;;;;;5099072;28;20055;-82
2022/06/27 04:02:30;;;;;;;0.00;0.00;;;16.40;99.90;;;;;;5099121;28;20482;-83
2022/06/27 04:04:56;;;;;;;0.00;0.00;;;16.40;99.90;;;;;;5116206;28;20184;-82
2022/06/27 04:07:22;;;;;;;0.20;0.10;;;16.40;99.90;;;;;;5116292;28;20035;-82
2022/06/27 04:09:47;;;;;;;0.00;0.00;;;16.30;99.90;;;;;;5115900;28;20032;-82
2022/06/27 04:12:13;;;;;;;0.00;0.00;;;16.40;99.90;;;;;;5098616;28;20100;-82
2022/06/27 04:14:38;;;;;;;0.00;0.00;;;16.40;99.90;;;;;;5101177;27;20057;-81
2022/06/27 04:17:04;;;;;;;0.00;0.00;;;16.40;99.90;;;;;;5119874;27;20041;-81
2022/06/27 04:19:30;;;;;;;0.00;0.00;;;16.40;99.90;;;;;;5119893;27;20054;-81
2022/06/27 04:21:55;;;;;;;0.00;0.00;;;16.40;99.90;;;;;;5119528;27;20043;-81
2022/06/27 04:24:21;;;;;;;0.00;0.00;;;16.40;99.90;;;;;;5120097;27;20043;-81
2022/06/27 04:26:47;;;;;;;0.00;0.00;;;16.30;99.90;;;;;;5120056;27;20382;-81
2022/06/27 04:29:12;;;;;;;0.00;0.00;;;16.40;99.90;;;;;;5119867;27;20490;-81
2022/06/27 04:31:38;;;;;;;0.00;0.00;;;16.40;99.90;;;;;;5120077;27;20478;-81
2022/06/27 04:34:04;;;;;;;0.00;0.00;;;16.30;99.90;;;;;;5102785;27;20035;-81
2022/06/27 04:36:31;;;;;;;0.00;0.00;;;16.30;99.90;;;;;;5102465;27;20047;-81
2022/06/27 04:38:58;;;;;;;0.00;0.00;;;16.30;99.90;;;;;;5119921;27;20035;-81
2022/06/27 04:41:25;;;;;;;0.00;0.00;;;16.30;99.90;;;;;;5119236;27;20068;-80
2022/06/27 04:43:53;;;;;;;0.00;0.00;;;16.30;99.90;;;;;;5119613;27;20039;-81
2022/06/27 04:46:19;;;;;;;0.00;0.00;;;16.30;99.90;;;;;;5102239;27;20070;-81
2022/06/27 04:48:46;;;;;;;0.00;0.00;;;16.30;99.90;;;;;;5119425;27;20478;-81
2022/06/27 04:51:14;;;;;;;0.57;0.20;;;16.30;99.90;;;;;;5119735;27;20058;-81
2022/06/27 04:53:40;;;;;;;0.10;0.00;;;16.30;99.90;;;;;;5119659;27;20046;-81
2022/06/27 04:56:06;;;;;;;0.00;0.00;;;16.30;99.90;;;;;;5119365;27;20043;-81
2022/06/27 04:58:32;;;;;;;0.00;0.00;;;16.30;99.90;;;;;;5101458;27;20047;-81
2022/06/27 05:00:58;;;;;;;0.10;0.08;;;16.30;99.90;;;;;;5119244;27;20047;-81
2022/06/27 05:03:24;;;;;;;0.00;0.00;;;16.30;99.90;;;;;;5101815;27;20133;-81
2022/06/27 05:05:50;;;;;;;0.00;0.00;;;16.30;99.90;;;;;;5102314;27;20079;-81
2022/06/27 05:08:17;;;;;;;0.00;0.00;;;16.30;99.90;;;;;;5118385;27;20111;-80
2022/06/27 05:10:43;;;;;;;0.00;0.00;;;16.20;99.90;;;;;;5102132;27;20047;-81
2022/06/27 05:13:09;;;;;;;0.00;0.00;;;16.30;99.90;;;;;;5119119;27;20150;-81
2022/06/27 05:15:37;;;;;;;0.00;0.00;;;16.30;99.90;;;;;;5118929;27;20050;-81
2022/06/27 05:18:03;;;;;;;0.00;0.00;;;16.30;99.90;;;;;;5118982;27;20100;-81
2022/06/27 05:20:30;;;;;;;0.00;0.00;;;16.30;99.90;;;;;;5118704;27;20064;-81
2022/06/27 05:22:56;;;;;;;0.00;0.00;;;16.40;99.90;;;;;;5118805;27;20395;-81
2022/06/27 05:25:22;;;;;;;0.00;0.00;;;16.40;99.90;;;;;;5117688;28;20553;-81
2022/06/27 05:27:49;;;;;;;0.00;0.00;;;16.40;99.90;;;;;;5118652;27;20047;-81
2022/06/27 05:30:15;;;;;;;0.00;0.00;;;16.40;99.90;;;;;;5101690;27;20054;-81
2022/06/27 05:32:42;;;;;;;0.00;0.00;;;16.40;99.90;;;;;;5118564;27;20039;-81
2022/06/27 05:35:08;;;;;;;0.00;0.00;;;16.50;99.90;;;;;;5101855;27;20039;-81
2022/06/27 05:37:35;;;;;;;0.10;0.00;;;16.50;99.90;;;;;;5118746;27;20480;-81
2022/06/27 05:40:03;;;;;;;0.00;0.00;;;16.50;99.90;;;;;;5118427;27;20047;-80
2022/06/27 05:42:28;;;;;;;0.00;0.00;;;16.50;99.90;;;;;;5100674;27;20051;-82
2022/06/27 05:44:55;;;;;;;0.20;0.20;;;16.60;99.90;;;;;;5101145;27;20482;-81
2022/06/27 05:47:21;;;;;;;0.00;0.00;;;16.60;99.90;;;;;;5118015;27;20090;-81
2022/06/27 05:49:49;;;;;;;0.00;0.00;;;16.60;99.90;;;;;;5101913;27;20039;-81
2022/06/27 05:52:14;;;;;;;0.00;0.00;;;16.70;99.90;;;;;;5101380;27;20093;-80
2022/06/27 05:54:40;;;;;;;0.00;0.00;;;16.70;99.90;;;;;;5101329;27;20086;-81
2022/06/27 05:57:06;;;;;;;0.00;0.00;;;16.70;99.90;;;;;;5118181;27;20038;-81
2022/06/27 05:59:33;;;;;;;0.00;0.00;;;16.80;99.90;;;;;;5100639;27;20134;-81
2022/06/27 06:02:00;;;;;;;0.03;0.03;;;16.80;99.90;;;;;;5101081;27;20043;-81
2022/06/27 06:04:26;;;;;;;0.00;0.00;;;16.90;99.90;;;;;;5118611;27;20394;-81
2022/06/27 06:06:52;;;;;;;0.00;0.00;;;16.90;99.90;;;;;;5100594;27;20058;-81
2022/06/27 06:09:18;;;;;;;0.00;0.00;;;16.90;99.90;;;;;;5101054;27;20187;-81
2022/06/27 06:11:48;;;;;;;0.00;0.00;;;16.90;99.90;;;;;;5101069;27;20534;-81
2022/06/27 06:14:19;;;;;;;0.00;0.00;;;16.90;99.90;;;;;;5100697;27;20538;-81
2022/06/27 06:16:45;;;;;;;0.00;0.00;;;16.80;99.90;;;;;;5117840;27;20482;-81
2022/06/27 06:19:11;;;;;;;0.00;0.00;;;16.90;99.90;;;;;;5117565;27;20050;-81
2022/06/27 06:21:38;;;;;;;0.00;0.00;;;16.80;99.90;;;;;;5117481;27;20039;-81
2022/06/27 06:24:04;;;;;;;0.00;0.00;;;16.90;99.90;;;;;;5117518;27;20042;-80
2022/06/27 06:26:30;;;;;;;0.00;0.00;;;16.90;99.90;;;;;;5100432;27;20054;-80
2022/06/27 06:28:55;;;;;;;0.00;0.00;;;16.90;99.90;;;;;;5117249;27;20039;-81
2022/06/27 06:31:22;;;;;;;0.00;0.00;;;16.90;99.90;;;;;;5117823;27;20078;-81
2022/06/27 06:33:53;;;;;;;0.10;0.10;;;16.90;99.90;;;;;;5117436;27;20074;-81
2022/06/27 06:36:21;;;;;;;0.00;0.00;;;16.90;99.90;;;;;;5100294;27;20074;-81
2022/06/27 06:38:49;;;;;;;0.00;0.00;;;16.90;99.90;;;;;;5117245;27;20046;-80
2022/06/27 06:41:15;;;;;;;0.00;0.00;;;16.90;99.90;;;;;;5099495;27;20090;-81
2022/06/27 06:43:42;;;;;;;0.00;0.00;;;16.90;99.90;;;;;;5100093;27;20157;-81
2022/06/27 06:46:10;;;;;;;0.00;0.00;;;16.90;99.90;;;;;;5100325;27;20063;-81
2022/06/27 06:48:37;;;;;;;0.00;0.00;;;17.00;99.90;;;;;;5100160;27;20047;-80
2022/06/27 06:51:04;;;;;;;0.00;0.00;;;17.10;99.90;;;;;;5117103;27;20443;-80
2022/06/27 06:53:30;;;;;;;0.00;0.00;;;17.20;99.90;;;;;;5117039;27;20555;-80
2022/06/27 06:55:57;;;;;;;0.00;0.00;;;17.20;99.90;;;;;;5099993;27;20134;-81
2022/06/27 06:58:27;;;;;;;0.00;0.00;;;17.20;99.90;;;;;;5116110;27;20116;-81
2022/06/27 07:00:54;;;;;;;0.00;0.00;;;17.10;99.90;;;;;;5099360;27;20495;-81
2022/06/27 07:03:20;;;;;;;0.00;0.00;;;17.10;99.90;;;;;;5116900;27;20539;-80
2022/06/27 07:05:46;;;;;;;0.00;0.00;;;17.10;99.90;;;;;;5099356;27;20050;-81
2022/06/27 07:08:12;;;;;;;0.00;0.00;;;17.10;99.90;;;;;;5116877;27;20487;-81
2022/06/27 07:10:39;;;;;;;0.00;0.00;;;17.10;99.90;;;;;;5116543;27;20134;-80
2022/06/27 07:13:05;;;;;;;0.00;0.00;;;17.00;99.90;;;;;;5099835;28;20043;-80
2022/06/27 07:15:33;;;;;;;0.00;0.00;;;17.00;99.90;;;;;;5116741;27;20134;-80
2022/06/27 07:18:02;;;;;;;0.00;0.00;;;16.90;99.90;;;;;;5099575;27;20170;-80
2022/06/27 07:20:30;;;;;;;0.00;0.00;;;16.90;99.90;;;;;;5116489;28;20040;-80
2022/06/27 07:22:55;;;;;;;0.00;0.00;;;16.90;99.90;;;;;;5116561;27;20043;-81
2022/06/27 07:25:22;;;;;;;0.00;0.00;;;17.00;99.90;;;;;;5098702;28;20058;-81
2022/06/27 07:27:48;;;;;;;0.00;0.00;;;16.90;99.90;;;;;;5117191;28;20452;-81
2022/06/27 07:30:15;;;;;;;0.00;0.00;;;16.90;99.90;;;;;;5116613;28;20043;-81
2022/06/27 07:32:42;;;;;;;0.00;0.00;;;16.90;99.90;;;;;;5116152;28;20062;-81
2022/06/27 07:35:11;;;;;;;0.00;0.00;;;16.90;99.90;;;;;;5116514;28;20122;-81
2022/06/27 07:37:45;;;;;;;0.00;0.00;;;16.90;99.90;;;;;;5115534;28;20181;-81
2022/06/27 07:40:11;;;;;;;0.00;0.00;;;16.90;99.90;;;;;;5115769;28;20055;-80
2022/06/27 07:42:38;;;;;;;0.00;0.00;;;16.90;99.90;;;;;;5116421;28;20051;-81
2022/06/27 07:45:05;;;;;;;0.00;0.00;;;17.00;99.90;;;;;;5116363;28;20036;-81
2022/06/27 07:47:31;;;;;;;0.00;0.00;;;17.10;99.90;;;;;;5115240;28;20413;-81
2022/06/27 07:49:57;;;;;;;0.10;0.00;;;17.20;99.90;;;;;;5118879;27;20115;-81
2022/06/27 07:52:23;;;;;;;0.10;0.10;;;17.20;99.90;;;;;;5120525;27;20474;-80
2022/06/27 07:54:49;;;;;;;0.00;0.00;;;17.20;99.90;;;;;;5119673;27;20054;-80
2022/06/27 07:57:15;;;;;;;0.00;0.00;;;17.20;99.90;;;;;;5102984;27;20063;-80
2022/06/27 07:59:41;;;;;;;0.00;0.00;;;17.40;99.90;;;;;;5120345;27;20448;-80
2022/06/27 08:02:09;;;;;;;0.00;0.00;;;17.40;99.90;;;;;;5120079;27;20475;-80
2022/06/27 08:04:36;;;;;;;0.00;0.00;;;17.50;99.90;;;;;;5102756;27;20051;-80
2022/06/27 08:07:03;;;;;;;0.10;0.00;;;17.50;99.90;;;;;;5120204;27;20091;-80
2022/06/27 08:09:29;;;;;;;0.00;0.00;;;17.50;99.90;;;;;;5103786;27;20051;-80
2022/06/27 08:11:55;;;;;;;0.00;0.00;;;17.50;99.90;;;;;;5102766;27;20054;-80
2022/06/27 08:14:22;;;;;;;0.00;0.00;;;17.50;99.90;;;;;;5120130;27;20146;-80
2022/06/27 08:16:51;;;;;;;0.08;0.00;;;17.50;99.90;;;;;;5120179;27;20130;-80
2022/06/27 08:19:18;;;;;;;0.00;0.00;;;17.60;99.90;;;;;;5119753;27;20051;-80
2022/06/27 08:21:44;;;;;;;0.22;0.15;;;17.60;99.90;;;;;;5120356;27;20043;-80
2022/06/27 08:24:16;;;;;;;0.00;0.00;;;17.60;99.90;;;;;;5120136;27;20541;-80
2022/06/27 08:26:44;;;;;;;0.00;0.00;;;17.70;99.90;;;;;;5119844;27;20043;-80
2022/06/27 08:29:09;;;;;;;0.00;0.00;;;17.80;99.90;;;;;;5119831;27;20043;-80
2022/06/27 08:31:37;;;;;;;0.00;0.00;;;17.80;99.90;;;;;;5119539;27;20501;-81
2022/06/27 08:34:03;;;;;;;0.00;0.00;;;17.80;99.90;;;;;;5119753;27;20394;-80
2022/06/27 08:36:30;;;;;;;0.00;0.00;;;17.80;99.90;;;;;;5102149;27;20145;-80
2022/06/27 08:39:01;;;;;;;0.00;0.00;;;17.80;99.90;;;;;;5119729;27;20051;-80
2022/06/27 08:41:27;;;;;;;0.00;0.00;;;17.70;99.90;;;;;;5102464;27;20043;-80
2022/06/27 08:44:00;;;;;;;0.00;0.00;;;17.70;99.90;;;;;;5119706;27;20039;-80
2022/06/27 08:46:28;;;;;;;0.00;0.00;;;17.80;99.90;;;;;;5119484;27;20393;-80
2022/06/27 08:48:55;;;;;;;0.00;0.00;;;17.70;99.90;;;;;;5102432;27;20380;-80
2022/06/27 08:51:21;;;;;;;0.00;0.00;;;17.80;99.90;;;;;;5119646;27;20095;-81
2022/06/27 08:53:51;;;;;;;0.00;0.00;;;17.80;99.90;;;;;;5119260;27;20043;-80
2022/06/27 08:56:17;;;;;;;0.00;0.00;;;17.90;99.90;;;;;;5119408;27;20053;-80
2022/06/27 08:58:47;;;;;;;0.00;0.00;;;17.80;99.90;;;;;;5118808;27;20574;-80
2022/06/27 09:01:19;;;;;;;0.00;0.00;;;17.90;99.90;;;;;;5118669;27;20047;-80
2022/06/27 09:04:06;;;;;;;0.00;0.00;;;17.90;99.90;;;;;;5119191;27;20054;-81
2022/06/27 09:06:44;;;;;;;0.00;0.00;;;17.80;99.90;;;;;;5102215;27;20055;-80
2022/06/27 09:09:12;;;;;;;0.00;0.00;;;17.70;99.90;;;;;;5101894;27;20054;-80
2022/06/27 09:11:40;;;;;;;0.00;0.00;;;17.70;99.90;;;;;;5102295;27;20032;-80
2022/06/27 09:14:10;;;;;;;0.00;0.00;;;17.70;99.90;;;;;;5118953;27;20041;-80
2022/06/27 09:16:36;;;;;;;0.00;0.00;;;17.70;99.90;;;;;;5119401;27;20051;-80
2022/06/27 09:19:02;;;;;;;0.00;0.00;;;17.70;99.90;;;;;;5118896;27;20499;-79
2022/06/27 09:21:27;;;;;;;0.00;0.00;;;17.70;99.90;;;;;;5101373;27;20520;-79
2022/06/27 09:23:58;;;;;;;0.00;0.00;;;17.60;99.90;;;;;;5118743;27;20035;-80
2022/06/27 09:26:35;;;;;;;0.00;0.00;;;17.60;99.90;;;;;;5118886;27;20478;-79
2022/06/27 09:29:04;;;;;;;0.00;0.00;;;17.60;99.90;;;;;;5119176;27;20107;-79
2022/06/27 09:31:33;;;;;;;0.00;0.00;;;17.60;99.90;;;;;;5119316;27;20130;-79
2022/06/27 09:34:05;;;;;;;0.00;0.00;;;17.60;99.90;;;;;;5101333;27;20078;-80
2022/06/27 09:36:34;;;;;;;0.00;0.00;;;17.60;99.90;;;;;;5118878;27;20051;-80
2022/06/27 09:39:01;;;;;;;0.00;0.00;;;17.60;99.90;;;;;;5117138;27;20043;-79
2022/06/27 09:41:30;;;;;;;0.00;0.00;;;17.70;99.90;;;;;;5118469;27;20046;-79
2022/06/27 09:44:03;;;;;;;0.00;0.00;;;17.70;99.90;;;;;;5135438;27;20053;-80
2022/06/27 09:46:35;;;;;;;0.00;0.00;;;17.80;99.90;;;;;;5115249;28;20387;-80
2022/06/27 09:49:03;;;;;;;0.00;0.00;;;17.90;99.90;;;;;;5080893;28;20054;-80
2022/06/27 09:51:34;;;;;;;0.00;0.00;;;17.90;99.90;;;;;;5097800;28;20484;-80
2022/06/27 09:54:10;;;;;;;0.00;0.00;;;17.90;99.90;;;;;;5098224;28;20139;-80
2022/06/27 09:56:39;;;;;;;0.00;0.00;;;17.90;99.90;;;;;;5097767;28;20039;-79
2022/06/27 09:59:07;;;;;;;0.00;0.00;;;17.90;99.90;;;;;;5097293;28;20051;-79
2022/06/27 10:01:34;;;;;;;0.00;0.00;;;17.90;99.90;;;;;;5097215;28;20517;-80
2022/06/27 10:04:01;;;;;;;0.00;0.00;;;18.00;99.90;;;;;;5097486;28;20051;-82
2022/06/27 10:06:29;;;;;;;0.00;0.00;;;18.10;99.90;;;;;;5080609;28;20043;-79
2022/06/27 10:08:55;;;;;;;0.00;0.00;;;18.10;99.90;;;;;;5097563;28;20487;-79
2022/06/27 10:11:21;;;;;;;0.00;0.00;;;18.20;99.90;;;;;;5097006;28;20142;-80
2022/06/27 10:14:11;;;;;;;0.00;0.00;;;18.20;99.90;;;;;;5079663;28;20083;-80
2022/06/27 10:16:53;;;;;;;0.00;0.00;;;18.30;99.90;;;;;;5079876;28;20146;-80
2022/06/27 10:19:20;;;;;;;0.00;0.00;;;18.30;99.90;;;;;;5097619;28;20058;-81
2022/06/27 10:21:48;;;;;;;0.00;0.00;;;18.40;99.90;;;;;;5079374;28;20051;-80
2022/06/27 10:24:21;;;;;;;0.10;0.10;;;18.40;99.90;;;;;;5080248;28;20056;-80
2022/06/27 10:26:49;;;;;;;0.00;0.00;;;18.40;99.90;;;;;;5097124;28;20059;-79
2022/06/27 10:29:30;;;;;;;0.00;0.00;;;18.40;99.90;;;;;;5097493;28;20055;-78
2022/06/27 10:31:57;;;;;;;0.00;0.00;;;18.40;99.90;;;;;;5114069;28;20043;-78
2022/06/27 10:34:37;;;;;;;0.00;0.00;;;18.40;99.90;;;;;;5097140;28;20505;-79
2022/06/27 10:37:24;;;;;;;0.00;0.00;;;18.50;99.90;;;;;;5097693;28;20050;-78
2022/06/27 10:40:09;;;;;;;0.00;0.00;;;18.50;99.90;;;;;;5079896;28;20138;-79
2022/06/27 10:42:50;;;;;;;0.00;0.00;;;18.60;99.90;;;;;;5114285;28;20104;-78
2022/06/27 10:45:29;;;;;;;0.00;0.00;;;18.70;99.90;;;;;;5079975;28;20055;-79
2022/06/27 10:48:02;;;;;;;0.00;0.00;;;18.70;99.90;;;;;;5096742;28;20040;-79
2022/06/27 10:50:38;;;;;;;0.00;0.00;;;18.80;99.90;;;;;;5097169;28;20052;-79
2022/06/27 10:53:19;;;;;;;0.00;0.00;;;18.90;99.90;;;;;;5096255;28;20032;-78
2022/06/27 10:55:46;;;;;;;0.00;0.00;;;19.00;99.90;;;;;;5077402;28;20126;-79
2022/06/27 10:58:40;;;;;;;0.00;0.00;;;18.90;99.90;;;;;;5096098;28;20040;-78
2022/06/27 11:01:18;;;;;;;0.00;0.00;;;18.90;99.90;;;;;;5096808;28;20078;-78
2022/06/27 11:03:44;;;;;;;0.00;0.00;;;18.90;99.90;;;;;;5096641;28;20097;-79
2022/06/27 11:06:13;;;;;;;0.00;0.00;;;19.00;99.90;;;;;;5096302;28;20043;-79
2022/06/27 11:08:41;;;;;;;0.00;0.00;;;19.00;99.90;;;;;;5096500;28;20055;-79
2022/06/27 11:11:07;;;;;;;0.10;0.00;;;19.00;99.90;;;;;;5079829;28;20116;-79
2022/06/27 11:13:52;;;;;;;0.00;0.00;;;19.00;99.90;;;;;;5096493;28;20043;-79
2022/06/27 11:16:24;;;;;;;0.00;0.00;;;19.00;99.90;;;;;;5096460;28;20126;-78
2022/06/27 11:18:51;;;;;;;0.00;0.00;;;19.00;99.90;;;;;;5079319;28;20051;-79
2022/06/27 11:21:28;;;;;;;0.00;0.00;;;18.90;99.90;;;;;;5095974;28;20046;-79
2022/06/27 11:24:09;;;;;;;0.00;0.00;;;18.90;99.90;;;;;;5079552;28;20051;-79
2022/06/27 11:26:38;;;;;;;0.00;0.00;;;18.90;99.90;;;;;;5096406;28;20395;-79
2022/06/27 11:32:04;;;;;;;0.00;0.00;;;19.00;99.90;;;;;;5096774;28;20447;-79
2022/06/27 11:34:33;;;;;;;0.00;0.00;;;19.00;99.90;;;;;;5095685;28;20089;-79
2022/06/27 11:37:00;;;;;;;0.35;0.10;;;19.00;99.90;;;;;;5095700;28;20044;-79
2022/06/27 11:39:28;;;;;;;0.00;0.00;;;19.00;99.90;;;;;;5096038;28;20050;-79
2022/06/27 11:41:59;;;;;;;0.00;0.00;;;18.90;99.90;;;;;;5095730;28;20046;-79
2022/06/27 11:44:26;;;;;;;0.00;0.00;;;18.90;99.90;;;;;;5079194;28;20052;-79
2022/06/27 11:47:01;;;;;;;0.08;0.08;;;18.90;99.90;;;;;;5096037;28;20052;-78
2022/06/27 11:49:30;;;;;;;0.43;0.15;;;19.00;99.90;;;;;;5078824;28;20056;-78
2022/06/27 11:52:02;;;;;;;0.00;0.00;;;19.00;99.90;;;;;;5079138;28;20056;-78
2022/06/27 11:54:41;;;;;;;0.00;0.00;;;18.90;99.90;;;;;;5096056;28;20048;-78
2022/06/27 11:57:32;;;;;;;0.00;0.00;;;18.90;99.90;;;;;;5096088;28;20047;-79
2022/06/27 12:00:00;;;;;;;0.00;0.00;;;18.90;99.90;;;;;;5078912;28;20059;-79
2022/06/27 12:02:31;;;;;;;0.00;0.00;;;18.90;99.90;;;;;;5095591;28;20451;-79
2022/06/27 12:05:13;;;;;;;0.00;0.00;;;18.90;99.90;;;;;;5079211;28;20047;-79
2022/06/27 12:08:11;;;;;;;0.00;0.00;;;19.00;99.90;;;;;;5095966;28;20047;-80
2022/06/27 12:10:39;;;;;;;0.00;0.00;;;19.10;99.90;;;;;;5031194;28;20065;-79
2022/06/27 12:13:11;;;;;;;0.00;0.00;;;19.20;99.90;;;;;;5014308;28;20053;-79
2022/06/27 12:15:38;;;;;;;0.00;0.00;;;19.20;99.90;;;;;;5015001;28;20053;-79
2022/06/27 12:18:06;;;;;;;0.00;0.00;;;19.20;99.90;;;;;;4998849;28;20132;-79
2022/06/27 12:20:33;;;;;;;0.00;0.00;;;19.20;99.90;;;;;;5014599;28;20065;-79
2022/06/27 12:23:00;;;;;;;0.00;0.00;;;19.20;99.90;;;;;;5014853;28;20103;-79
2022/06/27 12:25:26;;;;;;;0.00;0.00;;;19.10;99.90;;;;;;5014677;28;20053;-79
2022/06/27 12:27:52;;;;;;;0.00;0.00;;;19.20;99.90;;;;;;4998924;28;20072;-79
2022/06/27 12:30:18;;;;;;;0.05;0.05;;;19.20;99.90;;;;;;5014680;28;20046;-79
2022/06/27 12:32:44;;;;;;;0.00;0.00;;;19.20;99.90;;;;;;5014750;28;20059;-79
2022/06/27 12:35:11;;;;;;;0.00;0.00;;;19.20;99.90;;;;;;5015740;28;20057;-79
2022/06/27 12:37:38;;;;;;;0.00;0.00;;;19.10;99.90;;;;;;5017348;28;20494;-79
2022/06/27 12:40:08;;;;;;;0.00;0.00;;;19.00;99.90;;;;;;5001898;28;20053;-79
2022/06/27 12:42:34;;;;;;;0.00;0.00;;;19.00;99.90;;;;;;5018296;28;20045;-79
2022/06/27 12:45:00;;;;;;;0.08;0.08;;;18.90;99.90;;;;;;5034654;28;20056;-79
2022/06/27 12:47:26;;;;;;;0.45;0.10;;;18.90;99.90;;;;;;5074902;28;20173;-80
2022/06/27 12:49:52;;;;;;;0.00;0.00;;;18.90;99.90;;;;;;5100398;27;20080;-80
2022/06/27 12:52:18;;;;;;;0.00;0.00;;;18.90;99.90;;;;;;5113025;28;20055;-80
2022/06/27 12:54:44;;;;;;;0.00;0.00;;;18.80;99.90;;;;;;5097729;28;20134;-79
2022/06/27 12:57:13;;;;;;;0.00;0.00;;;18.80;99.90;;;;;;5118795;27;20175;-80